createdAt,value
2023-03-21T00:01:09.203Z,10.57
2023-03-21T00:03:39.676Z,9.90
2023-03-21T00:06:12.918Z,7.78
2023-03-21T00:08:44.851Z,8.13
2023-03-21T00:11:17.877Z,9.50
2023-03-21T00:13:48.201Z,9.07
2023-03-21T00:16:26.357Z,8.93
2023-03-21T00:19:03.437Z,8.68
2023-03-21T00:21:55.619Z,9.15
2023-03-21T00:24:25.164Z,11.23
2023-03-21T00:29:49.422Z,8.57
2023-03-21T00:32:23.145Z,9.63
2023-03-21T00:35:05.160Z,8.23
2023-03-21T00:37:44.381Z,8.85
2023-03-21T00:40:25.769Z,9.43
2023-03-21T00:43:00.730Z,8.23
2023-03-21T00:45:31.926Z,10.05
2023-03-21T00:48:04.730Z,9.60
2023-03-21T00:50:35.342Z,9.13
2023-03-21T00:53:05.872Z,10.75
2023-03-21T00:55:38.426Z,9.73
2023-03-21T00:58:11.589Z,10.93
2023-03-21T01:00:42.501Z,9.02
2023-03-21T01:03:24.268Z,7.65
2023-03-21T01:06:05.747Z,8.40
2023-03-21T01:08:51.852Z,5.13
2023-03-21T01:11:28.253Z,6.65
2023-03-21T01:14:18.798Z,8.15
2023-03-21T01:16:53.321Z,5.60
2023-03-21T01:19:41.037Z,6.03
2023-03-21T01:22:18.990Z,6.40
2023-03-21T01:24:55.472Z,5.35
2023-03-21T01:27:28.926Z,5.82
2023-03-21T01:30:02.594Z,5.53
2023-03-21T01:32:33.501Z,6.20
2023-03-21T01:35:04.056Z,4.85
2023-03-21T01:37:34.684Z,5.10
2023-03-21T01:40:07.075Z,5.18
2023-03-21T01:42:37.336Z,6.93
2023-03-21T01:46:00.898Z,6.47
2023-03-21T01:48:49.331Z,4.78
2023-03-21T01:51:20.530Z,4.03
2023-03-21T01:54:01.867Z,8.25
2023-03-21T01:56:39.251Z,7.45
2023-03-21T01:59:17.503Z,6.28
2023-03-21T02:02:18.018Z,7.03
2023-03-21T02:05:02.296Z,4.50
2023-03-21T02:07:35.896Z,5.18
2023-03-21T02:10:15.629Z,4.78
2023-03-21T02:12:50.175Z,6.10
2023-03-21T02:15:21.063Z,5.13
2023-03-21T02:18:19.253Z,5.28
2023-03-21T02:21:43.513Z,6.68
2023-03-21T02:24:54.499Z,5.68
2023-03-21T02:27:32.887Z,5.30
2023-03-21T02:30:51.172Z,5.35
2023-03-21T02:33:57.121Z,6.82
2023-03-21T02:36:31.708Z,6.97
2023-03-21T02:39:14.794Z,5.53
2023-03-21T02:41:53.711Z,6.50
2023-03-21T02:44:41.132Z,8.48
2023-03-21T02:47:15.715Z,7.25
2023-03-21T02:49:53.587Z,6.70
2023-03-21T02:52:38.674Z,5.93
2023-03-21T02:55:20.526Z,17.95
2023-03-21T02:58:06.981Z,37.63
2023-03-21T03:00:45.441Z,11.02
2023-03-21T03:03:33.488Z,6.80
2023-03-21T03:06:12.909Z,7.70
2023-03-21T03:09:02.881Z,7.95
2023-03-21T03:11:39.969Z,8.85
2023-03-21T03:14:50.030Z,43.38
2023-03-21T03:17:46.187Z,17.92
2023-03-21T03:20:42.074Z,7.88
2023-03-21T03:23:23.841Z,8.27
2023-03-21T03:25:59.591Z,8.38
2023-03-21T03:28:38.275Z,8.10
2023-03-21T03:31:16.668Z,7.30
2023-03-21T03:36:36.071Z,11.30
2023-03-21T03:39:16.842Z,7.30
2023-03-21T03:42:18.251Z,7.78
2023-03-21T03:44:57.525Z,10.52
2023-03-21T03:47:38.041Z,11.38
2023-03-21T03:50:20.089Z,10.23
2023-03-21T03:52:57.470Z,6.20
2023-03-21T03:55:34.888Z,12.65
2023-03-21T03:58:23.540Z,7.05
2023-03-21T04:00:59.488Z,12.60
2023-03-21T04:03:39.282Z,10.43
2023-03-21T04:06:16.642Z,9.07
2023-03-21T04:08:47.405Z,8.85
2023-03-21T04:11:18.620Z,13.32
2023-03-21T04:13:53.683Z,10.30
2023-03-21T04:16:33.325Z,10.30
2023-03-21T04:19:05.042Z,10.32
2023-03-21T04:21:35.566Z,9.88
2023-03-21T04:24:07.537Z,9.27
2023-03-21T04:26:38.263Z,9.43
2023-03-21T04:32:56.752Z,15.48
2023-03-21T04:35:28.551Z,12.52
2023-03-21T04:37:59.489Z,10.63
2023-03-21T04:40:30.041Z,9.38
2023-03-21T04:43:01.391Z,9.68
2023-03-21T04:45:32.207Z,11.93
2023-03-21T04:48:07.680Z,11.35
2023-03-21T04:50:38.410Z,11.70
2023-03-21T04:53:09.081Z,9.52
2023-03-21T04:55:40.089Z,8.55
2023-03-21T04:58:10.606Z,10.88
2023-03-21T05:00:41.174Z,10.55
2023-03-21T05:03:19.844Z,15.50
2023-03-21T05:05:51.690Z,14.63
2023-03-21T05:08:22.572Z,17.92
2023-03-21T05:10:53.165Z,13.68
2023-03-21T05:13:24.425Z,12.63
2023-03-21T05:15:54.838Z,14.82
2023-03-21T05:18:28.438Z,13.93
2023-03-21T05:21:10.904Z,11.95
2023-03-21T05:23:43.264Z,14.77
2023-03-21T05:26:14.512Z,11.32
2023-03-21T05:28:53.720Z,12.43
2023-03-21T05:31:24.773Z,14.15
2023-03-21T05:34:05.800Z,13.98
2023-03-21T05:36:36.886Z,11.98
2023-03-21T05:39:10.639Z,14.63
2023-03-21T05:41:46.024Z,13.98
2023-03-21T05:46:47.187Z,12.00
2023-03-21T05:49:22.762Z,14.05
2023-03-21T05:51:57.728Z,12.32
2023-03-21T05:54:28.097Z,12.57
2023-03-21T05:56:58.773Z,11.77
2023-03-21T05:59:49.340Z,14.27
2023-03-21T06:02:21.447Z,17.17
2023-03-21T06:04:56.728Z,12.30
2023-03-21T06:07:27.110Z,15.65
2023-03-21T06:09:58.579Z,11.00
2023-03-21T06:12:28.915Z,12.60
2023-03-21T06:14:59.728Z,15.25
2023-03-21T06:17:45.177Z,10.30
2023-03-21T06:20:18.753Z,16.08
2023-03-21T06:22:54.465Z,11.85
2023-03-21T06:25:24.885Z,13.68
2023-03-21T06:27:55.339Z,12.45
2023-03-21T06:30:26.356Z,10.55
2023-03-21T06:33:11.285Z,11.55
2023-03-21T06:35:44.337Z,13.70
2023-03-21T06:38:14.665Z,11.57
2023-03-21T06:40:45.558Z,11.23
2023-03-21T06:43:16.256Z,14.40
2023-03-21T06:45:47.372Z,14.70
2023-03-21T06:48:18.100Z,13.45
2023-03-21T06:50:56.661Z,10.82
2023-03-21T06:53:35.697Z,10.13
2023-03-21T06:56:22.780Z,11.43
2023-03-21T06:58:54.497Z,10.95
2023-03-21T07:01:45.604Z,13.73
2023-03-21T07:04:16.669Z,13.00
2023-03-21T07:06:50.691Z,12.35
2023-03-21T07:09:28.112Z,11.27
2023-03-21T07:12:01.535Z,15.20
2023-03-21T07:14:43.089Z,10.82
2023-03-21T07:17:13.485Z,12.90
2023-03-21T07:19:44.862Z,9.77
2023-03-21T07:22:18.540Z,12.95
2023-03-21T07:25:04.133Z,10.35
2023-03-21T07:27:41.451Z,11.55
2023-03-21T07:30:14.880Z,11.00
2023-03-21T07:32:45.697Z,13.68
2023-03-21T07:35:19.029Z,8.70
2023-03-21T07:37:52.047Z,13.65
2023-03-21T07:40:22.566Z,11.07
2023-03-21T07:42:53.288Z,12.07
2023-03-21T07:45:32.981Z,10.02
2023-03-21T07:48:03.665Z,14.02
2023-03-21T07:50:37.447Z,9.23
2023-03-21T07:53:13.250Z,11.65
2023-03-21T07:55:43.668Z,11.00
2023-03-21T07:58:14.135Z,11.68
2023-03-21T08:00:44.579Z,10.05
2023-03-21T08:03:15.202Z,16.58
2023-03-21T08:05:45.676Z,11.05
2023-03-21T08:08:18.698Z,10.13
2023-03-21T08:10:49.259Z,12.57
2023-03-21T08:13:19.627Z,12.57
2023-03-21T08:15:50.013Z,12.65
2023-03-21T08:18:20.673Z,11.45
2023-03-21T08:20:55.739Z,10.75
2023-03-21T08:23:29.791Z,14.23
2023-03-21T08:26:01.585Z,13.73
2023-03-21T08:28:31.943Z,10.30
2023-03-21T08:31:02.749Z,10.00
2023-03-21T08:33:33.127Z,12.50
2023-03-21T08:36:03.880Z,12.52
2023-03-21T08:38:37.136Z,15.23
2023-03-21T08:41:08.147Z,10.73
2023-03-21T08:46:09.606Z,13.00
2023-03-21T08:48:40.330Z,9.75
2023-03-21T08:51:12.931Z,9.50
2023-03-21T08:53:46.050Z,12.30
2023-03-21T08:56:16.669Z,11.23
2023-03-21T08:58:47.525Z,10.43
2023-03-21T09:01:17.881Z,11.90
2023-03-21T09:03:48.341Z,11.52
2023-03-21T09:06:18.861Z,8.73
2023-03-21T09:08:53.609Z,9.95
2023-03-21T09:11:24.009Z,8.40
2023-03-21T09:13:55.734Z,8.23
2023-03-21T09:16:26.191Z,7.57
2023-03-21T09:18:59.193Z,10.32
2023-03-21T09:21:31.561Z,7.93
2023-03-21T09:24:06.724Z,12.57
2023-03-21T09:26:40.119Z,7.32
2023-03-21T09:29:10.716Z,7.75
2023-03-21T09:31:43.948Z,7.82
2023-03-21T09:34:15.393Z,6.95
2023-03-21T09:36:48.625Z,7.22
2023-03-21T09:39:21.684Z,6.18
2023-03-21T09:42:07.191Z,6.82
2023-03-21T09:45:06.327Z,5.93
2023-03-21T09:47:45.521Z,6.32
2023-03-21T09:50:20.629Z,7.47
2023-03-21T09:52:57.207Z,6.57
2023-03-21T09:55:35.281Z,8.02
2023-03-21T09:58:12.776Z,4.30
2023-03-21T10:00:48.187Z,8.18
2023-03-21T10:03:26.387Z,6.70
2023-03-21T10:06:01.353Z,6.22
2023-03-21T10:08:37.500Z,7.63
2023-03-21T10:11:16.601Z,5.32
2023-03-21T10:13:53.955Z,9.35
2023-03-21T10:16:31.061Z,5.53
2023-03-21T10:19:04.068Z,6.18
2023-03-21T10:22:04.540Z,22.98
2023-03-21T10:24:27.885Z,5.10
2023-03-21T10:27:01.177Z,5.70
2023-03-21T10:29:37.324Z,5.28
2023-03-21T10:32:08.373Z,3.75
2023-03-21T10:34:43.782Z,4.38
2023-03-21T10:37:16.934Z,5.07
2023-03-21T10:39:51.654Z,5.88
2023-03-21T10:42:27.565Z,4.95
2023-03-21T10:45:00.281Z,3.85
2023-03-21T10:47:34.237Z,8.90
2023-03-21T10:50:09.939Z,5.10
2023-03-21T10:52:56.747Z,3.60
2023-03-21T10:55:32.541Z,4.97
2023-03-21T10:58:11.087Z,3.38
2023-03-21T11:00:45.299Z,3.70
2023-03-21T11:03:25.888Z,3.20
2023-03-21T11:05:59.147Z,3.15
2023-03-21T11:08:30.251Z,4.15
2023-03-21T11:11:06.926Z,5.35
2023-03-21T11:13:43.189Z,3.95
2023-03-21T11:16:24.838Z,3.75
2023-03-21T11:19:00.442Z,5.25
2023-03-21T11:21:31.032Z,5.60
2023-03-21T11:26:36.734Z,2.70
2023-03-21T11:29:34.212Z,3.10
2023-03-21T11:32:13.166Z,4.40
2023-03-21T11:34:50.744Z,3.17
2023-03-21T11:37:30.120Z,2.47
2023-03-21T11:40:21.176Z,3.40
2023-03-21T11:42:54.665Z,8.65
2023-03-21T11:45:30.365Z,2.63
2023-03-21T11:48:03.408Z,4.68
2023-03-21T11:50:38.228Z,5.75
2023-03-21T11:53:27.157Z,2.70
2023-03-21T11:56:22.358Z,2.50
2023-03-21T11:59:19.420Z,2.97
2023-03-21T12:02:06.962Z,2.33
2023-03-21T12:04:46.158Z,2.55
2023-03-21T12:07:48.937Z,6.03
2023-03-21T12:10:35.420Z,3.92
2023-03-21T12:13:20.126Z,3.10
2023-03-21T12:16:03.103Z,3.70
2023-03-21T12:19:00.670Z,2.97
2023-03-21T12:21:39.951Z,3.10
2023-03-21T12:24:17.585Z,3.15
2023-03-21T12:27:01.065Z,3.53
2023-03-21T12:29:51.885Z,6.30
2023-03-21T12:32:36.374Z,3.25
2023-03-21T12:35:25.243Z,5.60
2023-03-21T12:38:11.728Z,3.50
2023-03-21T12:41:18.515Z,4.45
2023-03-21T12:43:55.351Z,4.32
2023-03-21T12:46:32.654Z,4.60
2023-03-21T12:49:08.062Z,5.75
2023-03-21T12:51:47.025Z,3.85
2023-03-21T12:54:26.857Z,3.72
2023-03-21T12:57:07.466Z,3.20
2023-03-21T13:02:23.678Z,2.63
2023-03-21T13:05:04.680Z,4.53
2023-03-21T13:07:43.057Z,4.60
2023-03-21T13:10:21.050Z,4.65
2023-03-21T13:13:09.926Z,4.57
2023-03-21T13:15:55.803Z,2.80
2023-03-21T13:18:41.174Z,4.57
2023-03-21T13:21:19.565Z,2.90
2023-03-21T13:24:05.664Z,3.58
2023-03-21T13:26:40.891Z,3.50
2023-03-21T13:29:26.103Z,5.05
2023-03-21T13:31:59.769Z,7.00
2023-03-21T13:34:31.294Z,3.20
2023-03-21T13:37:01.862Z,4.28
2023-03-21T13:39:34.921Z,4.65
2023-03-21T13:42:09.221Z,3.80
2023-03-21T13:44:49.612Z,2.88
2023-03-21T13:47:38.772Z,4.97
2023-03-21T13:50:27.126Z,7.72
2023-03-21T13:53:23.682Z,5.18
2023-03-21T13:56:28.039Z,5.05
2023-03-21T13:59:04.325Z,4.20
2023-03-21T14:01:39.601Z,5.25
2023-03-21T14:04:19.465Z,5.90
2023-03-21T14:06:54.401Z,4.68
2023-03-21T14:09:40.284Z,4.68
2023-03-21T14:12:19.614Z,2.88
2023-03-21T14:14:54.241Z,3.25
2023-03-21T14:17:31.135Z,6.45
2023-03-21T14:20:11.835Z,5.97
2023-03-21T14:22:43.764Z,3.72
2023-03-21T14:25:16.592Z,4.85
2023-03-21T14:27:53.893Z,5.82
2023-03-21T14:30:29.389Z,4.57
2023-03-21T14:33:01.706Z,5.13
2023-03-21T14:35:37.463Z,5.47
2023-03-21T14:38:11.145Z,7.97
2023-03-21T14:40:49.982Z,3.00
2023-03-21T14:43:24.868Z,6.20
2023-03-21T14:45:58.250Z,4.95
2023-03-21T14:48:34.451Z,5.05
2023-03-21T14:51:09.444Z,3.80
2023-03-21T14:53:43.667Z,4.53
2023-03-21T14:56:21.958Z,3.70
2023-03-21T14:58:56.616Z,5.38
2023-03-21T15:01:33.266Z,3.58
2023-03-21T15:04:08.567Z,5.50
2023-03-21T15:06:56.683Z,5.70
2023-03-21T15:09:31.054Z,3.45
2023-03-21T15:12:02.059Z,5.45
2023-03-21T15:14:38.935Z,3.70
2023-03-21T15:17:09.389Z,4.95
2023-03-21T15:19:43.757Z,6.45
2023-03-21T15:22:23.772Z,4.85
2023-03-21T15:24:57.289Z,4.57
2023-03-21T15:27:28.584Z,3.42
2023-03-21T15:30:01.811Z,3.60
2023-03-21T15:32:32.601Z,4.32
2023-03-21T15:37:41.392Z,2.53
2023-03-21T15:40:23.322Z,4.47
2023-03-21T15:42:54.079Z,3.92
2023-03-21T15:45:30.158Z,3.75
2023-03-21T15:48:06.140Z,4.45
2023-03-21T15:50:41.042Z,5.10
2023-03-21T15:53:17.919Z,6.18
2023-03-21T15:55:52.219Z,2.80
2023-03-21T15:58:26.062Z,6.95
2023-03-21T16:01:08.071Z,4.45
2023-03-21T16:03:41.433Z,5.00
2023-03-21T16:06:21.969Z,3.92
2023-03-21T16:08:55.223Z,7.15
2023-03-21T16:11:32.026Z,5.22
2023-03-21T16:14:02.522Z,3.72
2023-03-21T16:16:36.064Z,7.50
2023-03-21T16:19:07.354Z,5.68
2023-03-21T16:21:38.508Z,3.90
2023-03-21T16:24:11.552Z,6.32
2023-03-21T16:26:47.748Z,5.20
2023-03-21T16:29:19.646Z,4.20
2023-03-21T16:31:53.473Z,5.75
2023-03-21T16:34:23.973Z,5.32
2023-03-21T16:36:54.434Z,9.40
2023-03-21T16:39:27.254Z,5.18
2023-03-21T16:41:58.315Z,4.10
2023-03-21T16:44:28.892Z,5.88
2023-03-21T16:47:02.526Z,5.25
2023-03-21T16:49:32.966Z,6.70
2023-03-21T16:52:03.562Z,7.00
2023-03-21T16:54:34.019Z,9.77
2023-03-21T16:57:08.052Z,5.55
2023-03-21T16:59:40.679Z,6.85
2023-03-21T17:02:19.457Z,7.97
2023-03-21T17:04:49.799Z,5.75
2023-03-21T17:07:20.937Z,10.05
2023-03-21T17:09:51.381Z,9.20
2023-03-21T17:12:21.795Z,8.25
2023-03-21T17:14:52.290Z,8.63
2023-03-21T17:17:25.248Z,7.95
2023-03-21T17:19:55.601Z,6.55
2023-03-21T17:22:25.963Z,8.95
2023-03-21T17:24:56.526Z,6.68
2023-03-21T17:27:27.294Z,10.70
2023-03-21T17:29:58.393Z,7.80
2023-03-21T17:32:31.601Z,8.55
2023-03-21T17:35:02.033Z,10.35
2023-03-21T17:37:35.333Z,6.85
2023-03-21T17:40:07.178Z,7.50
2023-03-21T17:42:37.573Z,11.52
2023-03-21T17:45:09.506Z,7.57
2023-03-21T17:47:44.618Z,6.57
2023-03-21T17:50:19.902Z,6.55
2023-03-21T17:52:50.950Z,6.75
2023-03-21T17:55:22.726Z,10.57
2023-03-21T17:57:53.149Z,5.93
2023-03-21T18:00:27.254Z,5.95
2023-03-21T18:03:00.763Z,8.55
2023-03-21T18:05:31.615Z,8.18
2023-03-21T18:10:42.789Z,5.25
2023-03-21T18:13:16.999Z,7.13
2023-03-21T18:15:48.356Z,6.18
2023-03-21T18:18:21.559Z,6.35
2023-03-21T18:20:53.993Z,10.48
2023-03-21T18:23:25.675Z,5.22
2023-03-21T18:25:56.304Z,7.65
2023-03-21T18:28:26.730Z,7.82
2023-03-21T18:31:09.497Z,6.10
2023-03-21T18:33:46.161Z,10.20
2023-03-21T18:36:24.792Z,9.77
2023-03-21T18:38:56.893Z,6.85
2023-03-21T18:41:27.586Z,7.05
2023-03-21T18:44:05.582Z,6.03
2023-03-21T18:46:40.681Z,8.80
2023-03-21T18:49:58.887Z,7.25
2023-03-21T18:52:06.546Z,8.65
2023-03-21T18:54:37.078Z,11.13
2023-03-21T18:59:59.905Z,7.45
2023-03-21T19:02:30.805Z,8.65
2023-03-21T19:07:35.184Z,8.70
2023-03-21T19:10:17.570Z,6.68
2023-03-21T19:12:49.543Z,7.57
2023-03-21T19:15:22.591Z,16.05
2023-03-21T19:18:30.668Z,10.93
2023-03-21T19:20:49.368Z,11.15
2023-03-21T19:23:21.325Z,10.57
2023-03-21T19:25:51.671Z,8.15
2023-03-21T19:28:22.265Z,8.63
2023-03-21T19:30:52.896Z,7.75
2023-03-21T19:33:24.608Z,7.82
2023-03-21T19:36:13.106Z,7.97
2023-03-21T19:38:46.619Z,8.07
2023-03-21T19:41:19.415Z,7.32
2023-03-21T19:43:55.188Z,12.40
2023-03-21T19:46:27.366Z,8.88
2023-03-21T19:51:31.270Z,6.43
2023-03-21T19:54:02.109Z,6.75
2023-03-21T19:59:04.416Z,8.57
2023-03-21T20:01:35.141Z,6.07
2023-03-21T20:04:07.134Z,7.30
2023-03-21T20:06:40.666Z,5.70
2023-03-21T20:09:50.823Z,5.95
2023-03-21T20:12:02.687Z,9.98
2023-03-21T20:14:33.115Z,7.70
2023-03-21T20:17:04.813Z,9.55
2023-03-21T20:19:35.590Z,11.18
2023-03-21T20:22:21.779Z,9.27
2023-03-21T20:24:58.235Z,10.35
2023-03-21T20:27:30.448Z,7.93
2023-03-21T20:30:10.130Z,9.30
2023-03-21T20:32:41.713Z,8.75
2023-03-21T20:35:21.017Z,9.65
2023-03-21T20:38:04.424Z,10.55
2023-03-21T20:40:36.812Z,7.22
2023-03-21T20:43:40.073Z,7.80
2023-03-21T20:46:04.149Z,8.43
2023-03-21T20:48:35.217Z,7.78
2023-03-21T20:54:00.941Z,6.82
2023-03-21T20:56:31.359Z,6.63
2023-03-21T20:59:16.324Z,5.55
2023-03-21T21:01:54.392Z,7.70
2023-03-21T21:04:42.774Z,5.10
2023-03-21T21:07:16.436Z,6.87
2023-03-21T21:09:50.822Z,7.90
2023-03-21T21:12:23.350Z,6.18
2023-03-21T21:14:53.927Z,7.35
2023-03-21T21:17:54.151Z,7.68
2023-03-21T21:20:20.630Z,8.25
2023-03-21T21:22:59.404Z,9.20
2023-03-21T21:25:36.089Z,7.32
2023-03-21T21:28:09.234Z,7.15
2023-03-21T21:30:43.985Z,9.05
2023-03-21T21:33:14.706Z,9.20
2023-03-21T21:35:48.060Z,9.00
2023-03-21T21:38:20.040Z,9.88
2023-03-21T21:40:54.619Z,7.07
2023-03-21T21:43:25.138Z,11.80
2023-03-21T21:45:55.501Z,7.45
2023-03-21T21:48:27.157Z,11.68
2023-03-21T21:50:59.362Z,8.32
2023-03-21T21:53:33.861Z,10.02
2023-03-21T21:56:07.765Z,10.77
2023-03-21T21:58:38.686Z,8.27
2023-03-21T22:01:10.105Z,8.07
2023-03-21T22:03:41.323Z,11.00
2023-03-21T22:06:12.784Z,14.43
2023-03-21T22:08:46.911Z,10.73
2023-03-21T22:11:20.460Z,9.70
2023-03-21T22:13:50.867Z,9.52
2023-03-21T22:16:21.332Z,11.02
2023-03-21T22:18:51.695Z,12.68
2023-03-21T22:21:22.125Z,12.10
2023-03-21T22:23:52.481Z,14.47
2023-03-21T22:26:26.149Z,10.02
2023-03-21T22:28:56.505Z,9.25
2023-03-21T22:31:27.154Z,10.20
2023-03-21T22:33:57.696Z,11.32
2023-03-21T22:36:28.186Z,9.18
2023-03-21T22:38:58.632Z,9.93
2023-03-21T22:41:31.664Z,11.73
2023-03-21T22:44:02.274Z,12.25
2023-03-21T22:46:33.931Z,13.18
2023-03-21T22:49:04.446Z,9.88
2023-03-21T22:51:34.984Z,12.57
2023-03-21T22:54:05.707Z,11.77
2023-03-21T22:56:38.883Z,16.80
2023-03-21T22:59:09.370Z,12.05
2023-03-21T23:01:40.034Z,10.38
2023-03-21T23:04:11.031Z,13.35
2023-03-21T23:06:42.185Z,11.15
2023-03-21T23:09:13.280Z,11.05
2023-03-21T23:14:21.020Z,10.98
2023-03-21T23:16:52.759Z,14.38
2023-03-21T23:19:25.518Z,13.90
2023-03-21T23:21:56.161Z,12.73
2023-03-21T23:24:26.921Z,17.27
2023-03-21T23:26:59.927Z,9.27
2023-03-21T23:29:30.413Z,10.15
2023-03-21T23:32:01.137Z,13.25
2023-03-21T23:34:31.775Z,20.58
2023-03-21T23:37:02.289Z,14.18
2023-03-21T23:39:33.692Z,12.18
2023-03-21T23:42:07.002Z,9.20
2023-03-21T23:44:37.662Z,10.65
2023-03-21T23:47:08.343Z,11.90
2023-03-21T23:49:41.142Z,10.15
2023-03-21T23:52:11.549Z,11.48
2023-03-21T23:54:42.015Z,10.50
2023-03-21T23:57:15.204Z,10.40
2023-03-21T23:59:47.061Z,12.63
